sensor_id;sensor_type;location;lat;lon;timestamp;P1;durP1;ratioP1;P2;durP2;ratioP2
27644;SDS011;15054;57.152;-2.118;2022-07-21T00:00:41;1.30;;;0.40;;
27644;SDS011;15054;57.152;-2.118;2022-07-21T00:07:27;0.20;;;0.20;;
27644;SDS011;15054;57.152;-2.118;2022-07-21T00:09:54;0.47;;;0.47;;
27644;SDS011;15054;57.152;-2.118;2022-07-21T00:12:21;1.92;;;0.40;;
27644;SDS011;15054;57.152;-2.118;2022-07-21T00:14:49;0.40;;;0.40;;
27644;SDS011;15054;57.152;-2.118;2022-07-21T00:17:16;0.70;;;0.47;;
27644;SDS011;15054;57.152;-2.118;2022-07-21T00:19:43;1.13;;;0.40;;
27644;SDS011;15054;57.152;-2.118;2022-07-21T00:22:10;1.42;;;0.50;;
27644;SDS011;15054;57.152;-2.118;2022-07-21T00:24:37;1.65;;;0.65;;
27644;SDS011;15054;57.152;-2.118;2022-07-21T00:27:04;1.80;;;0.50;;
27644;SDS011;15054;57.152;-2.118;2022-07-21T00:29:32;1.20;;;0.47;;
27644;SDS011;15054;57.152;-2.118;2022-07-21T00:31:59;1.40;;;0.70;;
27644;SDS011;15054;57.152;-2.118;2022-07-21T00:34:27;1.58;;;0.40;;
27644;SDS011;15054;57.152;-2.118;2022-07-21T00:36:54;1.10;;;0.45;;
27644;SDS011;15054;57.152;-2.118;2022-07-21T00:39:21;0.95;;;0.30;;
27644;SDS011;15054;57.152;-2.118;2022-07-21T00:41:48;1.38;;;0.43;;
27644;SDS011;15054;57.152;-2.118;2022-07-21T00:44:22;1.02;;;0.25;;
27644;SDS011;15054;57.152;-2.118;2022-07-21T00:46:51;0.80;;;0.55;;
27644;SDS011;15054;57.152;-2.118;2022-07-21T00:49:19;0.40;;;0.40;;
27644;SDS011;15054;57.152;-2.118;2022-07-21T00:51:47;1.20;;;0.50;;
27644;SDS011;15054;57.152;-2.118;2022-07-21T00:54:15;1.10;;;0.50;;
27644;SDS011;15054;57.152;-2.118;2022-07-21T00:56:43;1.55;;;0.50;;
27644;SDS011;15054;57.152;-2.118;2022-07-21T00:59:12;0.63;;;0.57;;
27644;SDS011;15054;57.152;-2.118;2022-07-21T01:01:39;1.08;;;0.75;;
27644;SDS011;15054;57.152;-2.118;2022-07-21T01:04:07;1.10;;;0.50;;
27644;SDS011;15054;57.152;-2.118;2022-07-21T01:06:34;1.20;;;0.60;;
27644;SDS011;15054;57.152;-2.118;2022-07-21T01:09:01;0.85;;;0.50;;
27644;SDS011;15054;57.152;-2.118;2022-07-21T01:11:36;2.58;;;0.50;;
27644;SDS011;15054;57.152;-2.118;2022-07-21T01:14:04;0.30;;;0.30;;
27644;SDS011;15054;57.152;-2.118;2022-07-21T01:16:33;1.48;;;0.40;;
27644;SDS011;15054;57.152;-2.118;2022-07-21T01:19:00;1.55;;;0.40;;
27644;SDS011;15054;57.152;-2.118;2022-07-21T01:21:29;1.17;;;0.47;;
27644;SDS011;15054;57.152;-2.118;2022-07-21T01:24:01;2.17;;;0.30;;
27644;SDS011;15054;57.152;-2.118;2022-07-21T01:26:30;0.50;;;0.47;;
27644;SDS011;15054;57.152;-2.118;2022-07-21T01:28:57;0.20;;;0.20;;
27644;SDS011;15054;57.152;-2.118;2022-07-21T01:31:25;0.95;;;0.55;;
27644;SDS011;15054;57.152;-2.118;2022-07-21T01:33:52;0.98;;;0.43;;
27644;SDS011;15054;57.152;-2.118;2022-07-21T01:36:19;0.77;;;0.40;;
27644;SDS011;15054;57.152;-2.118;2022-07-21T01:38:46;1.23;;;0.60;;
27644;SDS011;15054;57.152;-2.118;2022-07-21T01:41:34;0.82;;;0.50;;
27644;SDS011;15054;57.152;-2.118;2022-07-21T01:44:03;1.65;;;0.60;;
27644;SDS011;15054;57.152;-2.118;2022-07-21T01:46:33;1.27;;;0.40;;
27644;SDS011;15054;57.152;-2.118;2022-07-21T01:49:05;2.05;;;0.47;;
27644;SDS011;15054;57.152;-2.118;2022-07-21T01:51:36;1.15;;;0.52;;
27644;SDS011;15054;57.152;-2.118;2022-07-21T01:54:04;1.48;;;0.50;;
27644;SDS011;15054;57.152;-2.118;2022-07-21T01:56:34;0.25;;;0.25;;
27644;SDS011;15054;57.152;-2.118;2022-07-21T01:59:02;1.48;;;0.40;;
27644;SDS011;15054;57.152;-2.118;2022-07-21T02:01:30;1.92;;;0.82;;
27644;SDS011;15054;57.152;-2.118;2022-07-21T02:03:59;3.55;;;0.50;;
27644;SDS011;15054;57.152;-2.118;2022-07-21T02:06:29;0.75;;;0.40;;
27644;SDS011;15054;57.152;-2.118;2022-07-21T02:08:56;1.65;;;0.63;;
27644;SDS011;15054;57.152;-2.118;2022-07-21T02:11:23;1.00;;;0.60;;
27644;SDS011;15054;57.152;-2.118;2022-07-21T02:13:51;1.73;;;0.43;;
27644;SDS011;15054;57.152;-2.118;2022-07-21T02:16:18;2.17;;;0.47;;
27644;SDS011;15054;57.152;-2.118;2022-07-21T02:18:45;0.32;;;0.32;;
27644;SDS011;15054;57.152;-2.118;2022-07-21T02:21:13;1.17;;;0.40;;
27644;SDS011;15054;57.152;-2.118;2022-07-21T02:23:41;2.53;;;0.40;;
27644;SDS011;15054;57.152;-2.118;2022-07-21T02:26:08;1.45;;;0.52;;
27644;SDS011;15054;57.152;-2.118;2022-07-21T02:28:35;1.77;;;0.50;;
27644;SDS011;15054;57.152;-2.118;2022-07-21T02:31:02;1.52;;;0.50;;
27644;SDS011;15054;57.152;-2.118;2022-07-21T02:33:30;1.13;;;0.57;;
27644;SDS011;15054;57.152;-2.118;2022-07-21T02:35:57;3.97;;;0.70;;
27644;SDS011;15054;57.152;-2.118;2022-07-21T02:38:24;1.10;;;0.50;;
27644;SDS011;15054;57.152;-2.118;2022-07-21T02:40:51;2.03;;;0.50;;
27644;SDS011;15054;57.152;-2.118;2022-07-21T02:43:23;1.73;;;0.55;;
27644;SDS011;15054;57.152;-2.118;2022-07-21T02:45:50;2.38;;;0.90;;
27644;SDS011;15054;57.152;-2.118;2022-07-21T02:48:18;1.73;;;0.60;;
27644;SDS011;15054;57.152;-2.118;2022-07-21T02:50:45;0.70;;;0.40;;
27644;SDS011;15054;57.152;-2.118;2022-07-21T02:53:14;1.42;;;0.52;;
27644;SDS011;15054;57.152;-2.118;2022-07-21T02:55:46;2.60;;;0.30;;
27644;SDS011;15054;57.152;-2.118;2022-07-21T03:01:03;1.80;;;0.50;;
27644;SDS011;15054;57.152;-2.118;2022-07-21T03:03:32;4.03;;;0.52;;
27644;SDS011;15054;57.152;-2.118;2022-07-21T03:06:01;1.15;;;0.57;;
27644;SDS011;15054;57.152;-2.118;2022-07-21T03:08:29;0.50;;;0.50;;
27644;SDS011;15054;57.152;-2.118;2022-07-21T03:10:57;2.47;;;0.60;;
27644;SDS011;15054;57.152;-2.118;2022-07-21T03:13:24;0.90;;;0.50;;
27644;SDS011;15054;57.152;-2.118;2022-07-21T03:15:51;1.90;;;0.60;;
27644;SDS011;15054;57.152;-2.118;2022-07-21T03:22:45;0.40;;;0.35;;
27644;SDS011;15054;57.152;-2.118;2022-07-21T03:25:15;2.90;;;0.55;;
27644;SDS011;15054;57.152;-2.118;2022-07-21T03:27:43;2.28;;;0.73;;
27644;SDS011;15054;57.152;-2.118;2022-07-21T03:30:11;2.60;;;0.50;;
27644;SDS011;15054;57.152;-2.118;2022-07-21T03:32:39;0.55;;;0.55;;
27644;SDS011;15054;57.152;-2.118;2022-07-21T03:35:07;1.13;;;0.60;;
27644;SDS011;15054;57.152;-2.118;2022-07-21T03:37:44;2.75;;;0.45;;
27644;SDS011;15054;57.152;-2.118;2022-07-21T03:40:23;2.15;;;0.50;;
27644;SDS011;15054;57.152;-2.118;2022-07-21T03:42:52;1.23;;;0.43;;
27644;SDS011;15054;57.152;-2.118;2022-07-21T03:49:46;0.55;;;0.40;;
27644;SDS011;15054;57.152;-2.118;2022-07-21T03:56:32;0.80;;;0.60;;
27644;SDS011;15054;57.152;-2.118;2022-07-21T03:58:59;2.38;;;0.70;;
27644;SDS011;15054;57.152;-2.118;2022-07-21T04:01:26;0.70;;;0.40;;
27644;SDS011;15054;57.152;-2.118;2022-07-21T04:03:54;1.58;;;0.40;;
27644;SDS011;15054;57.152;-2.118;2022-07-21T04:06:21;0.85;;;0.50;;
27644;SDS011;15054;57.152;-2.118;2022-07-21T04:08:49;0.63;;;0.32;;
27644;SDS011;15054;57.152;-2.118;2022-07-21T04:11:16;0.38;;;0.38;;
27644;SDS011;15054;57.152;-2.118;2022-07-21T04:13:43;0.75;;;0.47;;
27644;SDS011;15054;57.152;-2.118;2022-07-21T04:20:30;0.45;;;0.40;;
27644;SDS011;15054;57.152;-2.118;2022-07-21T04:22:58;0.50;;;0.30;;
27644;SDS011;15054;57.152;-2.118;2022-07-21T04:25:26;1.35;;;0.43;;
27644;SDS011;15054;57.152;-2.118;2022-07-21T04:27:54;0.40;;;0.35;;
27644;SDS011;15054;57.152;-2.118;2022-07-21T04:30:23;0.90;;;0.52;;
27644;SDS011;15054;57.152;-2.118;2022-07-21T04:32:50;1.48;;;0.50;;
27644;SDS011;15054;57.152;-2.118;2022-07-21T04:35:18;1.83;;;0.60;;
27644;SDS011;15054;57.152;-2.118;2022-07-21T04:42:11;1.63;;;0.68;;
27644;SDS011;15054;57.152;-2.118;2022-07-21T04:44:39;0.80;;;0.30;;
27644;SDS011;15054;57.152;-2.118;2022-07-21T04:47:06;1.35;;;0.50;;
27644;SDS011;15054;57.152;-2.118;2022-07-21T04:49:33;2.58;;;0.50;;
27644;SDS011;15054;57.152;-2.118;2022-07-21T04:52:00;3.22;;;0.75;;
27644;SDS011;15054;57.152;-2.118;2022-07-21T04:54:31;0.80;;;0.50;;
27644;SDS011;15054;57.152;-2.118;2022-07-21T05:01:23;1.20;;;0.40;;
27644;SDS011;15054;57.152;-2.118;2022-07-21T05:03:50;0.47;;;0.47;;
27644;SDS011;15054;57.152;-2.118;2022-07-21T05:06:18;1.88;;;0.43;;
27644;SDS011;15054;57.152;-2.118;2022-07-21T05:08:52;2.30;;;0.50;;
27644;SDS011;15054;57.152;-2.118;2022-07-21T05:11:21;1.25;;;0.85;;
27644;SDS011;15054;57.152;-2.118;2022-07-21T05:18:09;0.75;;;0.30;;
27644;SDS011;15054;57.152;-2.118;2022-07-21T05:20:37;1.67;;;0.47;;
27644;SDS011;15054;57.152;-2.118;2022-07-21T05:23:04;0.30;;;0.30;;
27644;SDS011;15054;57.152;-2.118;2022-07-21T05:25:32;0.40;;;0.32;;
27644;SDS011;15054;57.152;-2.118;2022-07-21T05:28:02;0.30;;;0.30;;
27644;SDS011;15054;57.152;-2.118;2022-07-21T05:30:29;0.77;;;0.25;;
27644;SDS011;15054;57.152;-2.118;2022-07-21T05:32:57;0.40;;;0.30;;
27644;SDS011;15054;57.152;-2.118;2022-07-21T05:35:24;0.35;;;0.30;;
27644;SDS011;15054;57.152;-2.118;2022-07-21T05:37:51;1.73;;;0.30;;
27644;SDS011;15054;57.152;-2.118;2022-07-21T05:40:18;0.90;;;0.32;;
27644;SDS011;15054;57.152;-2.118;2022-07-21T05:42:45;0.60;;;0.20;;
27644;SDS011;15054;57.152;-2.118;2022-07-21T05:45:13;1.33;;;0.30;;
27644;SDS011;15054;57.152;-2.118;2022-07-21T05:47:40;0.73;;;0.22;;
27644;SDS011;15054;57.152;-2.118;2022-07-21T05:50:08;0.55;;;0.20;;
27644;SDS011;15054;57.152;-2.118;2022-07-21T05:52:36;0.63;;;0.30;;
27644;SDS011;15054;57.152;-2.118;2022-07-21T05:55:03;0.22;;;0.22;;
27644;SDS011;15054;57.152;-2.118;2022-07-21T05:57:31;0.40;;;0.38;;
27644;SDS011;15054;57.152;-2.118;2022-07-21T06:04:11;0.80;;;0.40;;
27644;SDS011;15054;57.152;-2.118;2022-07-21T06:06:39;1.08;;;0.50;;
27644;SDS011;15054;57.152;-2.118;2022-07-21T06:09:06;1.60;;;0.43;;
27644;SDS011;15054;57.152;-2.118;2022-07-21T06:14:45;1.05;;;0.50;;
27644;SDS011;15054;57.152;-2.118;2022-07-21T06:17:12;0.90;;;0.40;;
27644;SDS011;15054;57.152;-2.118;2022-07-21T06:19:39;1.33;;;0.65;;
27644;SDS011;15054;57.152;-2.118;2022-07-21T06:22:06;1.02;;;0.50;;
27644;SDS011;15054;57.152;-2.118;2022-07-21T06:24:33;1.40;;;0.40;;
27644;SDS011;15054;57.152;-2.118;2022-07-21T06:27:01;0.80;;;0.52;;
27644;SDS011;15054;57.152;-2.118;2022-07-21T06:29:31;2.50;;;0.90;;
27644;SDS011;15054;57.152;-2.118;2022-07-21T06:31:59;2.05;;;0.68;;
27644;SDS011;15054;57.152;-2.118;2022-07-21T06:34:26;0.52;;;0.52;;
27644;SDS011;15054;57.152;-2.118;2022-07-21T06:36:53;0.75;;;0.50;;
27644;SDS011;15054;57.152;-2.118;2022-07-21T06:39:20;5.20;;;0.80;;
27644;SDS011;15054;57.152;-2.118;2022-07-21T06:41:48;1.45;;;0.73;;
27644;SDS011;15054;57.152;-2.118;2022-07-21T06:44:16;1.42;;;0.70;;
27644;SDS011;15054;57.152;-2.118;2022-07-21T06:46:43;0.73;;;0.60;;
27644;SDS011;15054;57.152;-2.118;2022-07-21T06:49:10;1.58;;;0.68;;
27644;SDS011;15054;57.152;-2.118;2022-07-21T06:51:37;1.40;;;0.65;;
27644;SDS011;15054;57.152;-2.118;2022-07-21T06:54:04;1.95;;;0.75;;
27644;SDS011;15054;57.152;-2.118;2022-07-21T06:56:32;0.77;;;0.50;;
27644;SDS011;15054;57.152;-2.118;2022-07-21T06:58:59;0.95;;;0.40;;
27644;SDS011;15054;57.152;-2.118;2022-07-21T07:01:26;1.52;;;0.70;;
27644;SDS011;15054;57.152;-2.118;2022-07-21T07:03:53;0.93;;;0.50;;
27644;SDS011;15054;57.152;-2.118;2022-07-21T07:06:20;1.08;;;0.80;;
27644;SDS011;15054;57.152;-2.118;2022-07-21T07:08:49;3.03;;;0.82;;
27644;SDS011;15054;57.152;-2.118;2022-07-21T07:11:17;1.02;;;0.60;;
27644;SDS011;15054;57.152;-2.118;2022-07-21T07:13:45;0.63;;;0.50;;
27644;SDS011;15054;57.152;-2.118;2022-07-21T07:16:26;1.55;;;0.70;;
27644;SDS011;15054;57.152;-2.118;2022-07-21T07:18:53;1.35;;;0.63;;
27644;SDS011;15054;57.152;-2.118;2022-07-21T07:21:21;0.98;;;0.45;;
27644;SDS011;15054;57.152;-2.118;2022-07-21T07:23:49;0.40;;;0.40;;
27644;SDS011;15054;57.152;-2.118;2022-07-21T07:26:17;0.50;;;0.50;;
27644;SDS011;15054;57.152;-2.118;2022-07-21T07:28:47;0.60;;;0.60;;
27644;SDS011;15054;57.152;-2.118;2022-07-21T07:31:15;1.48;;;0.68;;
27644;SDS011;15054;57.152;-2.118;2022-07-21T07:33:42;3.40;;;1.05;;
27644;SDS011;15054;57.152;-2.118;2022-07-21T07:36:09;0.50;;;0.50;;
27644;SDS011;15054;57.152;-2.118;2022-07-21T07:38:39;0.65;;;0.50;;
27644;SDS011;15054;57.152;-2.118;2022-07-21T07:41:07;0.57;;;0.50;;
27644;SDS011;15054;57.152;-2.118;2022-07-21T07:43:34;3.05;;;0.60;;
27644;SDS011;15054;57.152;-2.118;2022-07-21T07:46:02;1.38;;;0.70;;
27644;SDS011;15054;57.152;-2.118;2022-07-21T07:48:31;0.50;;;0.50;;
27644;SDS011;15054;57.152;-2.118;2022-07-21T07:50:58;3.50;;;0.80;;
27644;SDS011;15054;57.152;-2.118;2022-07-21T07:53:25;0.60;;;0.50;;
27644;SDS011;15054;57.152;-2.118;2022-07-21T07:55:52;0.47;;;0.40;;
27644;SDS011;15054;57.152;-2.118;2022-07-21T07:58:19;0.98;;;0.40;;
27644;SDS011;15054;57.152;-2.118;2022-07-21T08:00:46;0.98;;;0.60;;
27644;SDS011;15054;57.152;-2.118;2022-07-21T08:03:21;1.27;;;0.30;;
27644;SDS011;15054;57.152;-2.118;2022-07-21T08:05:50;0.57;;;0.40;;
27644;SDS011;15054;57.152;-2.118;2022-07-21T08:08:18;1.13;;;0.30;;
27644;SDS011;15054;57.152;-2.118;2022-07-21T08:10:45;1.08;;;0.40;;
27644;SDS011;15054;57.152;-2.118;2022-07-21T08:13:13;0.25;;;0.25;;
27644;SDS011;15054;57.152;-2.118;2022-07-21T08:15:42;1.10;;;0.60;;
27644;SDS011;15054;57.152;-2.118;2022-07-21T08:18:10;0.65;;;0.40;;
27644;SDS011;15054;57.152;-2.118;2022-07-21T08:20:38;0.75;;;0.30;;
27644;SDS011;15054;57.152;-2.118;2022-07-21T08:23:06;0.98;;;0.40;;
27644;SDS011;15054;57.152;-2.118;2022-07-21T08:25:33;0.52;;;0.40;;
27644;SDS011;15054;57.152;-2.118;2022-07-21T08:28:00;0.30;;;0.30;;
27644;SDS011;15054;57.152;-2.118;2022-07-21T08:30:28;0.20;;;0.20;;
27644;SDS011;15054;57.152;-2.118;2022-07-21T08:32:57;0.32;;;0.32;;
27644;SDS011;15054;57.152;-2.118;2022-07-21T08:35:26;0.55;;;0.30;;
27644;SDS011;15054;57.152;-2.118;2022-07-21T08:37:54;0.47;;;0.40;;
27644;SDS011;15054;57.152;-2.118;2022-07-21T08:40:24;1.42;;;0.40;;
27644;SDS011;15054;57.152;-2.118;2022-07-21T08:42:52;0.75;;;0.40;;
27644;SDS011;15054;57.152;-2.118;2022-07-21T08:45:21;0.57;;;0.55;;
27644;SDS011;15054;57.152;-2.118;2022-07-21T08:47:52;1.40;;;0.43;;
27644;SDS011;15054;57.152;-2.118;2022-07-21T08:50:29;0.98;;;0.63;;
27644;SDS011;15054;57.152;-2.118;2022-07-21T08:52:58;0.60;;;0.60;;
27644;SDS011;15054;57.152;-2.118;2022-07-21T08:55:30;1.65;;;0.60;;
27644;SDS011;15054;57.152;-2.118;2022-07-21T08:57:58;1.27;;;0.52;;
27644;SDS011;15054;57.152;-2.118;2022-07-21T09:00:26;0.55;;;0.40;;
27644;SDS011;15054;57.152;-2.118;2022-07-21T09:05:40;0.50;;;0.50;;
27644;SDS011;15054;57.152;-2.118;2022-07-21T09:08:09;1.73;;;0.55;;
27644;SDS011;15054;57.152;-2.118;2022-07-21T09:10:36;1.25;;;0.88;;
27644;SDS011;15054;57.152;-2.118;2022-07-21T09:13:06;0.93;;;0.52;;
27644;SDS011;15054;57.152;-2.118;2022-07-21T09:15:47;0.40;;;0.40;;
27644;SDS011;15054;57.152;-2.118;2022-07-21T09:18:15;0.77;;;0.60;;
27644;SDS011;15054;57.152;-2.118;2022-07-21T09:20:49;1.30;;;0.50;;
27644;SDS011;15054;57.152;-2.118;2022-07-21T09:23:21;0.52;;;0.50;;
27644;SDS011;15054;57.152;-2.118;2022-07-21T09:25:50;0.75;;;0.52;;
27644;SDS011;15054;57.152;-2.118;2022-07-21T09:28:21;1.70;;;0.50;;
27644;SDS011;15054;57.152;-2.118;2022-07-21T09:30:53;1.70;;;0.50;;
27644;SDS011;15054;57.152;-2.118;2022-07-21T09:33:31;1.33;;;0.77;;
27644;SDS011;15054;57.152;-2.118;2022-07-21T09:38:57;0.82;;;0.52;;
27644;SDS011;15054;57.152;-2.118;2022-07-21T09:41:25;0.50;;;0.50;;
27644;SDS011;15054;57.152;-2.118;2022-07-21T09:43:55;1.85;;;1.00;;
27644;SDS011;15054;57.152;-2.118;2022-07-21T09:46:24;0.55;;;0.47;;
27644;SDS011;15054;57.152;-2.118;2022-07-21T09:48:56;1.00;;;0.60;;
27644;SDS011;15054;57.152;-2.118;2022-07-21T09:51:46;0.75;;;0.75;;
27644;SDS011;15054;57.152;-2.118;2022-07-21T09:54:14;2.17;;;0.70;;
27644;SDS011;15054;57.152;-2.118;2022-07-21T09:56:42;0.60;;;0.50;;
27644;SDS011;15054;57.152;-2.118;2022-07-21T09:59:11;0.40;;;0.40;;
27644;SDS011;15054;57.152;-2.118;2022-07-21T10:01:39;0.40;;;0.40;;
27644;SDS011;15054;57.152;-2.118;2022-07-21T10:04:07;1.83;;;0.50;;
27644;SDS011;15054;57.152;-2.118;2022-07-21T10:06:36;1.92;;;0.73;;
27644;SDS011;15054;57.152;-2.118;2022-07-21T10:09:08;2.08;;;0.60;;
27644;SDS011;15054;57.152;-2.118;2022-07-21T10:11:41;0.95;;;0.30;;
27644;SDS011;15054;57.152;-2.118;2022-07-21T10:14:10;1.73;;;0.55;;
27644;SDS011;15054;57.152;-2.118;2022-07-21T10:16:38;0.82;;;0.45;;
27644;SDS011;15054;57.152;-2.118;2022-07-21T10:19:19;0.70;;;0.30;;
27644;SDS011;15054;57.152;-2.118;2022-07-21T10:24:22;0.40;;;0.30;;
27644;SDS011;15054;57.152;-2.118;2022-07-21T10:32:14;0.50;;;0.40;;
27644;SDS011;15054;57.152;-2.118;2022-07-21T10:34:42;0.43;;;0.40;;
27644;SDS011;15054;57.152;-2.118;2022-07-21T10:37:10;0.35;;;0.35;;
27644;SDS011;15054;57.152;-2.118;2022-07-21T10:39:57;0.68;;;0.40;;
27644;SDS011;15054;57.152;-2.118;2022-07-21T10:42:24;0.70;;;0.52;;
27644;SDS011;15054;57.152;-2.118;2022-07-21T10:44:52;0.30;;;0.20;;
27644;SDS011;15054;57.152;-2.118;2022-07-21T10:47:20;0.38;;;0.38;;
27644;SDS011;15054;57.152;-2.118;2022-07-21T11:03:37;0.47;;;0.47;;
27644;SDS011;15054;57.152;-2.118;2022-07-21T11:08:34;0.70;;;0.60;;
27644;SDS011;15054;57.152;-2.118;2022-07-21T11:13:58;0.63;;;0.43;;
27644;SDS011;15054;57.152;-2.118;2022-07-21T11:21:58;2.17;;;0.70;;
27644;SDS011;15054;57.152;-2.118;2022-07-21T11:24:28;1.52;;;0.50;;
27644;SDS011;15054;57.152;-2.118;2022-07-21T11:29:24;1.45;;;0.85;;
27644;SDS011;15054;57.152;-2.118;2022-07-21T11:31:51;2.65;;;0.75;;
27644;SDS011;15054;57.152;-2.118;2022-07-21T11:34:19;0.43;;;0.43;;
27644;SDS011;15054;57.152;-2.118;2022-07-21T11:36:47;1.55;;;0.63;;
27644;SDS011;15054;57.152;-2.118;2022-07-21T11:39:31;0.95;;;0.60;;
27644;SDS011;15054;57.152;-2.118;2022-07-21T11:42:03;1.50;;;0.60;;
27644;SDS011;15054;57.152;-2.118;2022-07-21T11:44:32;1.05;;;0.60;;
27644;SDS011;15054;57.152;-2.118;2022-07-21T11:47:00;2.83;;;0.70;;
27644;SDS011;15054;57.152;-2.118;2022-07-21T11:49:29;0.85;;;0.60;;
27644;SDS011;15054;57.152;-2.118;2022-07-21T11:51:59;1.95;;;0.80;;
27644;SDS011;15054;57.152;-2.118;2022-07-21T11:57:10;2.58;;;0.60;;
27644;SDS011;15054;57.152;-2.118;2022-07-21T11:59:38;1.38;;;0.95;;
27644;SDS011;15054;57.152;-2.118;2022-07-21T12:04:41;0.55;;;0.47;;
27644;SDS011;15054;57.152;-2.118;2022-07-21T12:09:49;1.00;;;0.68;;
27644;SDS011;15054;57.152;-2.118;2022-07-21T12:13:01;0.90;;;0.47;;
27644;SDS011;15054;57.152;-2.118;2022-07-21T12:17:51;1.13;;;0.70;;
27644;SDS011;15054;57.152;-2.118;2022-07-21T12:20:39;1.70;;;0.70;;
27644;SDS011;15054;57.152;-2.118;2022-07-21T12:25:49;0.98;;;0.65;;
27644;SDS011;15054;57.152;-2.118;2022-07-21T12:28:40;0.40;;;0.40;;
27644;SDS011;15054;57.152;-2.118;2022-07-21T12:31:17;1.42;;;0.43;;
27644;SDS011;15054;57.152;-2.118;2022-07-21T12:33:51;1.47;;;0.40;;
27644;SDS011;15054;57.152;-2.118;2022-07-21T12:36:43;0.95;;;0.65;;
27644;SDS011;15054;57.152;-2.118;2022-07-21T12:39:22;1.40;;;0.50;;
27644;SDS011;15054;57.152;-2.118;2022-07-21T12:44:58;0.70;;;0.40;;
27644;SDS011;15054;57.152;-2.118;2022-07-21T12:47:29;0.50;;;0.30;;
27644;SDS011;15054;57.152;-2.118;2022-07-21T12:52:48;1.00;;;0.30;;
27644;SDS011;15054;57.152;-2.118;2022-07-21T12:55:15;1.42;;;0.68;;
27644;SDS011;15054;57.152;-2.118;2022-07-21T12:57:42;0.30;;;0.30;;
27644;SDS011;15054;57.152;-2.118;2022-07-21T13:00:09;1.15;;;0.60;;
27644;SDS011;15054;57.152;-2.118;2022-07-21T13:02:51;1.58;;;0.63;;
27644;SDS011;15054;57.152;-2.118;2022-07-21T13:05:22;1.00;;;0.47;;
27644;SDS011;15054;57.152;-2.118;2022-07-21T13:07:50;0.40;;;0.40;;
27644;SDS011;15054;57.152;-2.118;2022-07-21T13:10:18;0.93;;;0.50;;
27644;SDS011;15054;57.152;-2.118;2022-07-21T13:12:46;2.75;;;0.98;;
27644;SDS011;15054;57.152;-2.118;2022-07-21T13:15:14;2.17;;;1.00;;
27644;SDS011;15054;57.152;-2.118;2022-07-21T13:17:42;2.17;;;1.13;;
27644;SDS011;15054;57.152;-2.118;2022-07-21T13:20:11;4.60;;;1.30;;
27644;SDS011;15054;57.152;-2.118;2022-07-21T13:22:40;6.05;;;1.23;;
27644;SDS011;15054;57.152;-2.118;2022-07-21T13:25:09;2.15;;;0.98;;
27644;SDS011;15054;57.152;-2.118;2022-07-21T13:27:37;1.70;;;0.90;;
27644;SDS011;15054;57.152;-2.118;2022-07-21T13:30:05;3.17;;;1.08;;
27644;SDS011;15054;57.152;-2.118;2022-07-21T13:32:34;1.25;;;0.93;;
27644;SDS011;15054;57.152;-2.118;2022-07-21T13:35:03;3.63;;;1.23;;
27644;SDS011;15054;57.152;-2.118;2022-07-21T13:37:52;1.75;;;0.85;;
27644;SDS011;15054;57.152;-2.118;2022-07-21T13:40:20;3.85;;;0.95;;
27644;SDS011;15054;57.152;-2.118;2022-07-21T13:43:08;2.17;;;1.25;;
27644;SDS011;15054;57.152;-2.118;2022-07-21T13:45:56;1.02;;;0.73;;
27644;SDS011;15054;57.152;-2.118;2022-07-21T13:48:23;3.28;;;1.00;;
27644;SDS011;15054;57.152;-2.118;2022-07-21T13:50:51;3.17;;;0.95;;
27644;SDS011;15054;57.152;-2.118;2022-07-21T13:53:19;0.63;;;0.60;;
27644;SDS011;15054;57.152;-2.118;2022-07-21T13:55:49;3.00;;;1.10;;
27644;SDS011;15054;57.152;-2.118;2022-07-21T13:58:20;2.60;;;1.00;;
27644;SDS011;15054;57.152;-2.118;2022-07-21T14:00:47;3.17;;;1.30;;
27644;SDS011;15054;57.152;-2.118;2022-07-21T14:03:15;1.92;;;1.08;;
27644;SDS011;15054;57.152;-2.118;2022-07-21T14:05:43;1.42;;;1.05;;
27644;SDS011;15054;57.152;-2.118;2022-07-21T14:08:10;1.50;;;0.80;;
27644;SDS011;15054;57.152;-2.118;2022-07-21T14:10:37;3.30;;;1.15;;
27644;SDS011;15054;57.152;-2.118;2022-07-21T14:13:04;1.60;;;0.80;;
27644;SDS011;15054;57.152;-2.118;2022-07-21T14:15:31;3.58;;;1.38;;
27644;SDS011;15054;57.152;-2.118;2022-07-21T14:17:59;2.05;;;1.10;;
27644;SDS011;15054;57.152;-2.118;2022-07-21T14:20:26;1.90;;;0.70;;
27644;SDS011;15054;57.152;-2.118;2022-07-21T14:22:54;1.85;;;1.15;;
27644;SDS011;15054;57.152;-2.118;2022-07-21T14:25:22;3.15;;;1.38;;
27644;SDS011;15054;57.152;-2.118;2022-07-21T14:27:52;1.45;;;1.10;;
27644;SDS011;15054;57.152;-2.118;2022-07-21T14:30:21;2.03;;;1.10;;
27644;SDS011;15054;57.152;-2.118;2022-07-21T14:32:53;2.50;;;1.08;;
27644;SDS011;15054;57.152;-2.118;2022-07-21T14:35:21;3.05;;;1.13;;
27644;SDS011;15054;57.152;-2.118;2022-07-21T14:37:49;1.35;;;0.90;;
27644;SDS011;15054;57.152;-2.118;2022-07-21T14:40:17;1.80;;;1.30;;
27644;SDS011;15054;57.152;-2.118;2022-07-21T14:42:45;2.28;;;1.13;;
27644;SDS011;15054;57.152;-2.118;2022-07-21T14:45:14;3.20;;;1.10;;
27644;SDS011;15054;57.152;-2.118;2022-07-21T14:47:48;2.53;;;1.10;;
27644;SDS011;15054;57.152;-2.118;2022-07-21T14:50:17;1.38;;;0.88;;
27644;SDS011;15054;57.152;-2.118;2022-07-21T14:52:51;3.85;;;1.15;;
27644;SDS011;15054;57.152;-2.118;2022-07-21T14:55:19;3.15;;;1.10;;
27644;SDS011;15054;57.152;-2.118;2022-07-21T14:57:49;4.72;;;0.98;;
27644;SDS011;15054;57.152;-2.118;2022-07-21T15:00:17;5.35;;;1.30;;
27644;SDS011;15054;57.152;-2.118;2022-07-21T15:02:44;7.50;;;1.42;;
27644;SDS011;15054;57.152;-2.118;2022-07-21T15:05:12;4.25;;;1.50;;
27644;SDS011;15054;57.152;-2.118;2022-07-21T15:07:40;6.30;;;1.30;;
27644;SDS011;15054;57.152;-2.118;2022-07-21T15:10:08;6.93;;;2.05;;
27644;SDS011;15054;57.152;-2.118;2022-07-21T15:12:35;4.40;;;1.50;;
27644;SDS011;15054;57.152;-2.118;2022-07-21T15:15:03;3.00;;;1.38;;
27644;SDS011;15054;57.152;-2.118;2022-07-21T15:17:30;8.32;;;1.30;;
27644;SDS011;15054;57.152;-2.118;2022-07-21T15:19:58;2.63;;;1.15;;
27644;SDS011;15054;57.152;-2.118;2022-07-21T15:22:27;5.28;;;1.50;;
27644;SDS011;15054;57.152;-2.118;2022-07-21T15:24:57;6.20;;;2.03;;
27644;SDS011;15054;57.152;-2.118;2022-07-21T15:27:26;6.85;;;1.35;;
27644;SDS011;15054;57.152;-2.118;2022-07-21T15:29:58;6.13;;;1.50;;
27644;SDS011;15054;57.152;-2.118;2022-07-21T15:32:26;6.25;;;1.63;;
27644;SDS011;15054;57.152;-2.118;2022-07-21T15:34:55;3.90;;;1.10;;
27644;SDS011;15054;57.152;-2.118;2022-07-21T15:37:22;2.80;;;1.10;;
27644;SDS011;15054;57.152;-2.118;2022-07-21T15:39:50;4.10;;;1.13;;
27644;SDS011;15054;57.152;-2.118;2022-07-21T15:42:17;6.15;;;1.40;;
27644;SDS011;15054;57.152;-2.118;2022-07-21T15:44:45;1.90;;;0.90;;
27644;SDS011;15054;57.152;-2.118;2022-07-21T15:47:12;4.50;;;1.10;;
27644;SDS011;15054;57.152;-2.118;2022-07-21T15:49:39;6.20;;;1.60;;
27644;SDS011;15054;57.152;-2.118;2022-07-21T15:52:07;3.72;;;1.10;;
27644;SDS011;15054;57.152;-2.118;2022-07-21T15:54:36;6.80;;;1.17;;
27644;SDS011;15054;57.152;-2.118;2022-07-21T15:57:48;6.95;;;1.40;;
27644;SDS011;15054;57.152;-2.118;2022-07-21T16:00:18;4.90;;;1.35;;
27644;SDS011;15054;57.152;-2.118;2022-07-21T16:02:45;5.18;;;1.52;;
27644;SDS011;15054;57.152;-2.118;2022-07-21T16:05:33;3.67;;;1.23;;
27644;SDS011;15054;57.152;-2.118;2022-07-21T16:08:23;5.80;;;1.10;;
27644;SDS011;15054;57.152;-2.118;2022-07-21T16:13:54;6.50;;;1.48;;
27644;SDS011;15054;57.152;-2.118;2022-07-21T16:16:24;2.75;;;1.40;;
27644;SDS011;15054;57.152;-2.118;2022-07-21T16:19:13;4.60;;;1.40;;
27644;SDS011;15054;57.152;-2.118;2022-07-21T16:22:17;4.45;;;1.60;;
27644;SDS011;15054;57.152;-2.118;2022-07-21T16:25:03;7.20;;;1.83;;
27644;SDS011;15054;57.152;-2.118;2022-07-21T16:27:30;2.35;;;1.20;;
27644;SDS011;15054;57.152;-2.118;2022-07-21T16:29:58;5.05;;;1.20;;
27644;SDS011;15054;57.152;-2.118;2022-07-21T16:32:26;6.80;;;1.35;;
27644;SDS011;15054;57.152;-2.118;2022-07-21T16:34:53;7.50;;;1.20;;